sensor_id;sensor_type;location;lat;lon;timestamp;P1;durP1;ratioP1;P2;durP2;ratioP2
75837;SDS011;64480;52.040;113.502;2023-04-15T00:00:29;34.28;;;16.75;;
75837;SDS011;64480;52.040;113.502;2023-04-15T00:03:33;60.88;;;21.70;;
75837;SDS011;64480;52.040;113.502;2023-04-15T00:06:37;55.30;;;21.33;;
75837;SDS011;64480;52.040;113.502;2023-04-15T00:09:43;54.78;;;23.02;;
75837;SDS011;64480;52.040;113.502;2023-04-15T00:12:47;45.75;;;19.60;;
75837;SDS011;64480;52.040;113.502;2023-04-15T00:15:51;47.25;;;18.75;;
75837;SDS011;64480;52.040;113.502;2023-04-15T00:18:54;57.20;;;19.17;;
75837;SDS011;64480;52.040;113.502;2023-04-15T00:21:58;77.20;;;20.92;;
75837;SDS011;64480;52.040;113.502;2023-04-15T00:25:03;62.55;;;19.63;;
75837;SDS011;64480;52.040;113.502;2023-04-15T00:28:06;50.42;;;17.50;;
75837;SDS011;64480;52.040;113.502;2023-04-15T00:31:10;60.47;;;17.73;;
75837;SDS011;64480;52.040;113.502;2023-04-15T00:34:14;54.78;;;18.35;;
75837;SDS011;64480;52.040;113.502;2023-04-15T00:37:17;64.22;;;18.95;;
75837;SDS011;64480;52.040;113.502;2023-04-15T00:40:20;44.80;;;16.30;;
75837;SDS011;64480;52.040;113.502;2023-04-15T00:43:26;39.47;;;13.45;;
75837;SDS011;64480;52.040;113.502;2023-04-15T00:46:29;31.80;;;14.45;;
75837;SDS011;64480;52.040;113.502;2023-04-15T00:49:33;53.30;;;15.55;;
75837;SDS011;64480;52.040;113.502;2023-04-15T00:52:37;44.42;;;14.98;;
75837;SDS011;64480;52.040;113.502;2023-04-15T00:55:41;40.20;;;14.98;;
75837;SDS011;64480;52.040;113.502;2023-04-15T00:58:45;46.88;;;15.52;;
75837;SDS011;64480;52.040;113.502;2023-04-15T01:01:50;61.55;;;18.15;;
75837;SDS011;64480;52.040;113.502;2023-04-15T01:04:55;52.75;;;15.32;;
75837;SDS011;64480;52.040;113.502;2023-04-15T01:07:58;51.50;;;14.88;;
75837;SDS011;64480;52.040;113.502;2023-04-15T01:11:02;53.88;;;15.50;;
75837;SDS011;64480;52.040;113.502;2023-04-15T01:14:06;46.25;;;15.68;;
75837;SDS011;64480;52.040;113.502;2023-04-15T01:17:11;78.63;;;16.00;;
75837;SDS011;64480;52.040;113.502;2023-04-15T01:20:16;33.35;;;14.40;;
75837;SDS011;64480;52.040;113.502;2023-04-15T01:23:22;77.20;;;20.45;;
75837;SDS011;64480;52.040;113.502;2023-04-15T01:26:26;57.22;;;16.20;;
75837;SDS011;64480;52.040;113.502;2023-04-15T01:29:31;52.63;;;19.27;;
75837;SDS011;64480;52.040;113.502;2023-04-15T01:32:39;61.92;;;16.73;;
75837;SDS011;64480;52.040;113.502;2023-04-15T01:35:43;49.65;;;15.80;;
75837;SDS011;64480;52.040;113.502;2023-04-15T01:38:47;55.97;;;16.65;;
75837;SDS011;64480;52.040;113.502;2023-04-15T01:41:50;40.45;;;15.20;;
75837;SDS011;64480;52.040;113.502;2023-04-15T01:44:56;47.92;;;14.73;;
75837;SDS011;64480;52.040;113.502;2023-04-15T01:48:18;32.33;;;14.15;;
75837;SDS011;64480;52.040;113.502;2023-04-15T01:51:24;54.33;;;16.08;;
75837;SDS011;64480;52.040;113.502;2023-04-15T01:54:36;49.05;;;15.95;;
75837;SDS011;64480;52.040;113.502;2023-04-15T01:57:41;33.75;;;13.75;;
75837;SDS011;64480;52.040;113.502;2023-04-15T02:00:51;42.15;;;13.77;;
75837;SDS011;64480;52.040;113.502;2023-04-15T02:03:55;41.25;;;13.70;;
75837;SDS011;64480;52.040;113.502;2023-04-15T02:06:59;32.63;;;11.05;;
75837;SDS011;64480;52.040;113.502;2023-04-15T02:10:04;61.55;;;14.20;;
75837;SDS011;64480;52.040;113.502;2023-04-15T02:13:09;49.88;;;12.77;;
75837;SDS011;64480;52.040;113.502;2023-04-15T02:16:14;50.47;;;12.32;;
75837;SDS011;64480;52.040;113.502;2023-04-15T02:19:21;43.25;;;14.38;;
75837;SDS011;64480;52.040;113.502;2023-04-15T02:22:24;48.50;;;12.80;;
75837;SDS011;64480;52.040;113.502;2023-04-15T02:25:28;51.50;;;18.63;;
75837;SDS011;64480;52.040;113.502;2023-04-15T02:28:31;40.13;;;17.10;;
75837;SDS011;64480;52.040;113.502;2023-04-15T02:31:35;51.88;;;19.17;;
75837;SDS011;64480;52.040;113.502;2023-04-15T02:34:41;59.05;;;16.67;;
75837;SDS011;64480;52.040;113.502;2023-04-15T02:37:45;46.50;;;18.83;;
75837;SDS011;64480;52.040;113.502;2023-04-15T02:40:49;63.03;;;17.90;;
75837;SDS011;64480;52.040;113.502;2023-04-15T02:43:53;53.40;;;17.75;;
75837;SDS011;64480;52.040;113.502;2023-04-15T02:47:13;45.65;;;16.70;;
75837;SDS011;64480;52.040;113.502;2023-04-15T02:50:17;53.75;;;17.63;;
75837;SDS011;64480;52.040;113.502;2023-04-15T02:53:31;58.63;;;18.73;;
75837;SDS011;64480;52.040;113.502;2023-04-15T02:56:38;48.78;;;15.18;;
75837;SDS011;64480;52.040;113.502;2023-04-15T02:59:57;43.55;;;15.50;;
75837;SDS011;64480;52.040;113.502;2023-04-15T03:03:17;39.55;;;15.25;;
75837;SDS011;64480;52.040;113.502;2023-04-15T03:06:25;29.30;;;11.15;;
75837;SDS011;64480;52.040;113.502;2023-04-15T03:09:29;44.95;;;15.00;;
75837;SDS011;64480;52.040;113.502;2023-04-15T03:12:48;45.22;;;15.13;;
75837;SDS011;64480;52.040;113.502;2023-04-15T03:15:55;36.10;;;12.30;;
75837;SDS011;64480;52.040;113.502;2023-04-15T03:19:00;49.25;;;14.02;;
75837;SDS011;64480;52.040;113.502;2023-04-15T03:22:08;29.95;;;10.02;;
75837;SDS011;64480;52.040;113.502;2023-04-15T03:25:14;30.25;;;11.25;;
75837;SDS011;64480;52.040;113.502;2023-04-15T03:28:45;36.83;;;10.88;;
75837;SDS011;64480;52.040;113.502;2023-04-15T03:31:54;40.45;;;10.05;;
75837;SDS011;64480;52.040;113.502;2023-04-15T03:35:15;39.83;;;9.93;;
75837;SDS011;64480;52.040;113.502;2023-04-15T03:38:19;17.65;;;7.97;;
75837;SDS011;64480;52.040;113.502;2023-04-15T03:41:24;25.38;;;6.90;;
75837;SDS011;64480;52.040;113.502;2023-04-15T03:44:30;18.65;;;5.53;;
75837;SDS011;64480;52.040;113.502;2023-04-15T03:47:38;11.15;;;4.53;;
75837;SDS011;64480;52.040;113.502;2023-04-15T03:50:52;30.15;;;6.75;;
75837;SDS011;64480;52.040;113.502;2023-04-15T03:53:58;29.30;;;11.55;;
75837;SDS011;64480;52.040;113.502;2023-04-15T03:57:02;13.18;;;4.40;;
75837;SDS011;64480;52.040;113.502;2023-04-15T04:00:17;22.00;;;6.07;;
75837;SDS011;64480;52.040;113.502;2023-04-15T04:03:22;28.98;;;7.07;;
75837;SDS011;64480;52.040;113.502;2023-04-15T04:06:26;13.60;;;6.13;;
75837;SDS011;64480;52.040;113.502;2023-04-15T04:09:29;14.90;;;4.78;;
75837;SDS011;64480;52.040;113.502;2023-04-15T04:12:33;28.10;;;6.93;;
75837;SDS011;64480;52.040;113.502;2023-04-15T04:15:36;35.92;;;8.88;;
75837;SDS011;64480;52.040;113.502;2023-04-15T04:18:40;30.25;;;6.35;;
75837;SDS011;64480;52.040;113.502;2023-04-15T04:21:44;13.93;;;5.70;;
75837;SDS011;64480;52.040;113.502;2023-04-15T04:28:20;21.23;;;6.07;;
75837;SDS011;64480;52.040;113.502;2023-04-15T04:31:24;25.17;;;7.78;;
75837;SDS011;64480;52.040;113.502;2023-04-15T04:34:31;34.75;;;9.05;;
75837;SDS011;64480;52.040;113.502;2023-04-15T04:37:34;42.65;;;8.65;;
75837;SDS011;64480;52.040;113.502;2023-04-15T04:40:38;30.88;;;8.02;;
75837;SDS011;64480;52.040;113.502;2023-04-15T04:43:42;18.92;;;6.75;;
75837;SDS011;64480;52.040;113.502;2023-04-15T04:46:57;21.63;;;7.13;;
75837;SDS011;64480;52.040;113.502;2023-04-15T04:50:25;24.08;;;8.52;;
75837;SDS011;64480;52.040;113.502;2023-04-15T04:53:28;21.35;;;7.25;;
75837;SDS011;64480;52.040;113.502;2023-04-15T04:56:32;24.85;;;6.85;;
75837;SDS011;64480;52.040;113.502;2023-04-15T04:59:36;24.88;;;6.63;;
75837;SDS011;64480;52.040;113.502;2023-04-15T05:02:40;21.75;;;5.30;;
75837;SDS011;64480;52.040;113.502;2023-04-15T05:05:45;37.22;;;7.30;;
75837;SDS011;64480;52.040;113.502;2023-04-15T05:08:50;17.40;;;5.88;;
75837;SDS011;64480;52.040;113.502;2023-04-15T05:11:54;12.68;;;4.80;;
75837;SDS011;64480;52.040;113.502;2023-04-15T05:14:58;29.85;;;6.13;;
75837;SDS011;64480;52.040;113.502;2023-04-15T05:18:01;10.15;;;3.50;;
75837;SDS011;64480;52.040;113.502;2023-04-15T05:21:05;11.75;;;4.90;;
75837;SDS011;64480;52.040;113.502;2023-04-15T05:24:11;11.60;;;3.63;;
75837;SDS011;64480;52.040;113.502;2023-04-15T05:27:15;9.15;;;4.13;;
75837;SDS011;64480;52.040;113.502;2023-04-15T05:30:18;20.00;;;5.30;;
75837;SDS011;64480;52.040;113.502;2023-04-15T05:33:22;21.67;;;4.85;;
75837;SDS011;64480;52.040;113.502;2023-04-15T05:36:28;22.83;;;3.53;;
75837;SDS011;64480;52.040;113.502;2023-04-15T05:39:31;13.68;;;3.85;;
75837;SDS011;64480;52.040;113.502;2023-04-15T05:42:36;19.70;;;4.18;;
75837;SDS011;64480;52.040;113.502;2023-04-15T05:45:40;15.77;;;3.35;;
75837;SDS011;64480;52.040;113.502;2023-04-15T05:48:43;7.20;;;2.85;;
75837;SDS011;64480;52.040;113.502;2023-04-15T05:51:47;4.07;;;1.98;;
75837;SDS011;64480;52.040;113.502;2023-04-15T05:54:51;11.65;;;3.00;;
75837;SDS011;64480;52.040;113.502;2023-04-15T05:57:54;29.35;;;4.03;;
75837;SDS011;64480;52.040;113.502;2023-04-15T06:00:58;32.70;;;4.85;;
75837;SDS011;64480;52.040;113.502;2023-04-15T06:04:02;14.18;;;3.90;;
75837;SDS011;64480;52.040;113.502;2023-04-15T06:07:19;30.95;;;4.78;;
75837;SDS011;64480;52.040;113.502;2023-04-15T06:10:23;16.67;;;3.00;;
75837;SDS011;64480;52.040;113.502;2023-04-15T06:13:30;23.00;;;2.75;;
75837;SDS011;64480;52.040;113.502;2023-04-15T06:16:33;14.88;;;2.95;;
75837;SDS011;64480;52.040;113.502;2023-04-15T06:19:39;8.07;;;1.05;;
75837;SDS011;64480;52.040;113.502;2023-04-15T06:22:42;13.90;;;1.27;;
75837;SDS011;64480;52.040;113.502;2023-04-15T06:25:46;10.10;;;2.65;;
75837;SDS011;64480;52.040;113.502;2023-04-15T06:28:49;27.58;;;2.08;;
75837;SDS011;64480;52.040;113.502;2023-04-15T06:31:53;28.08;;;2.47;;
75837;SDS011;64480;52.040;113.502;2023-04-15T06:34:57;24.92;;;2.63;;
75837;SDS011;64480;52.040;113.502;2023-04-15T06:38:01;4.97;;;1.42;;
75837;SDS011;64480;52.040;113.502;2023-04-15T06:41:07;15.20;;;1.65;;
75837;SDS011;64480;52.040;113.502;2023-04-15T06:44:10;4.88;;;1.83;;
75837;SDS011;64480;52.040;113.502;2023-04-15T06:47:14;2.67;;;0.90;;
75837;SDS011;64480;52.040;113.502;2023-04-15T06:50:20;15.05;;;2.10;;
75837;SDS011;64480;52.040;113.502;2023-04-15T06:53:24;6.47;;;1.30;;
75837;SDS011;64480;52.040;113.502;2023-04-15T06:56:32;6.63;;;1.08;;
75837;SDS011;64480;52.040;113.502;2023-04-15T06:59:35;7.68;;;0.95;;
75837;SDS011;64480;52.040;113.502;2023-04-15T07:02:38;31.52;;;2.20;;
75837;SDS011;64480;52.040;113.502;2023-04-15T07:05:42;27.77;;;2.25;;
75837;SDS011;64480;52.040;113.502;2023-04-15T07:08:46;6.13;;;1.10;;
75837;SDS011;64480;52.040;113.502;2023-04-15T07:11:50;5.25;;;1.02;;
75837;SDS011;64480;52.040;113.502;2023-04-15T07:14:59;1.95;;;0.80;;
75837;SDS011;64480;52.040;113.502;2023-04-15T07:18:02;28.80;;;2.85;;
75837;SDS011;64480;52.040;113.502;2023-04-15T07:21:05;9.13;;;1.42;;
75837;SDS011;64480;52.040;113.502;2023-04-15T07:24:10;12.82;;;2.85;;
75837;SDS011;64480;52.040;113.502;2023-04-15T07:27:14;4.63;;;1.20;;
75837;SDS011;64480;52.040;113.502;2023-04-15T07:30:18;8.68;;;2.88;;
75837;SDS011;64480;52.040;113.502;2023-04-15T07:33:22;14.40;;;2.20;;
75837;SDS011;64480;52.040;113.502;2023-04-15T07:36:25;20.83;;;2.33;;
75837;SDS011;64480;52.040;113.502;2023-04-15T07:39:30;27.17;;;3.70;;
75837;SDS011;64480;52.040;113.502;2023-04-15T07:42:34;21.20;;;2.63;;
75837;SDS011;64480;52.040;113.502;2023-04-15T07:45:40;3.13;;;0.90;;
75837;SDS011;64480;52.040;113.502;2023-04-15T07:48:44;13.32;;;1.98;;
75837;SDS011;64480;52.040;113.502;2023-04-15T07:51:48;13.63;;;1.60;;
75837;SDS011;64480;52.040;113.502;2023-04-15T07:54:51;3.55;;;0.70;;
75837;SDS011;64480;52.040;113.502;2023-04-15T07:57:57;13.57;;;1.35;;
75837;SDS011;64480;52.040;113.502;2023-04-15T08:01:00;26.58;;;1.98;;
75837;SDS011;64480;52.040;113.502;2023-04-15T08:04:06;5.88;;;1.63;;
75837;SDS011;64480;52.040;113.502;2023-04-15T08:07:10;20.30;;;2.90;;
75837;SDS011;64480;52.040;113.502;2023-04-15T08:10:14;14.40;;;1.50;;
75837;SDS011;64480;52.040;113.502;2023-04-15T08:13:17;5.80;;;1.27;;
75837;SDS011;64480;52.040;113.502;2023-04-15T08:16:22;9.80;;;1.33;;
75837;SDS011;64480;52.040;113.502;2023-04-15T08:19:26;30.80;;;4.00;;
75837;SDS011;64480;52.040;113.502;2023-04-15T08:22:31;20.42;;;5.72;;
75837;SDS011;64480;52.040;113.502;2023-04-15T08:25:35;15.68;;;2.58;;
75837;SDS011;64480;52.040;113.502;2023-04-15T08:28:39;17.73;;;1.33;;
75837;SDS011;64480;52.040;113.502;2023-04-15T08:31:46;33.85;;;3.05;;
75837;SDS011;64480;52.040;113.502;2023-04-15T08:34:50;33.85;;;13.05;;
75837;SDS011;64480;52.040;113.502;2023-04-15T08:37:53;13.10;;;2.35;;
75837;SDS011;64480;52.040;113.502;2023-04-15T08:40:57;42.80;;;4.88;;
75837;SDS011;64480;52.040;113.502;2023-04-15T08:44:04;25.67;;;3.63;;
75837;SDS011;64480;52.040;113.502;2023-04-15T08:47:08;12.38;;;1.60;;
75837;SDS011;64480;52.040;113.502;2023-04-15T08:50:18;12.50;;;2.30;;
75837;SDS011;64480;52.040;113.502;2023-04-15T08:53:23;24.35;;;3.50;;
75837;SDS011;64480;52.040;113.502;2023-04-15T08:56:28;12.63;;;1.75;;
75837;SDS011;64480;52.040;113.502;2023-04-15T08:59:49;11.30;;;2.13;;
75837;SDS011;64480;52.040;113.502;2023-04-15T09:02:54;13.80;;;1.90;;
75837;SDS011;64480;52.040;113.502;2023-04-15T09:05:59;28.10;;;3.45;;
75837;SDS011;64480;52.040;113.502;2023-04-15T09:09:04;17.30;;;3.10;;
75837;SDS011;64480;52.040;113.502;2023-04-15T09:12:25;8.60;;;1.75;;
75837;SDS011;64480;52.040;113.502;2023-04-15T09:15:47;13.68;;;2.03;;
75837;SDS011;64480;52.040;113.502;2023-04-15T09:18:52;13.55;;;3.78;;
75837;SDS011;64480;52.040;113.502;2023-04-15T09:21:56;7.80;;;0.77;;
75837;SDS011;64480;52.040;113.502;2023-04-15T09:25:01;23.77;;;2.40;;
75837;SDS011;64480;52.040;113.502;2023-04-15T09:28:07;7.97;;;1.77;;
75837;SDS011;64480;52.040;113.502;2023-04-15T09:31:11;23.35;;;3.55;;
75837;SDS011;64480;52.040;113.502;2023-04-15T09:34:14;8.60;;;2.60;;
75837;SDS011;64480;52.040;113.502;2023-04-15T09:37:18;12.07;;;3.33;;
75837;SDS011;64480;52.040;113.502;2023-04-15T09:40:38;28.70;;;8.65;;
75837;SDS011;64480;52.040;113.502;2023-04-15T09:43:46;15.18;;;2.28;;
75837;SDS011;64480;52.040;113.502;2023-04-15T09:46:49;10.20;;;1.50;;
75837;SDS011;64480;52.040;113.502;2023-04-15T09:49:54;7.78;;;1.13;;
75837;SDS011;64480;52.040;113.502;2023-04-15T09:52:59;21.67;;;3.28;;
75837;SDS011;64480;52.040;113.502;2023-04-15T09:56:06;7.30;;;2.08;;
75837;SDS011;64480;52.040;113.502;2023-04-15T09:59:11;11.13;;;2.22;;
75837;SDS011;64480;52.040;113.502;2023-04-15T10:02:15;10.95;;;2.08;;
75837;SDS011;64480;52.040;113.502;2023-04-15T10:05:22;10.38;;;3.25;;
75837;SDS011;64480;52.040;113.502;2023-04-15T10:08:28;25.02;;;2.90;;
75837;SDS011;64480;52.040;113.502;2023-04-15T10:11:33;16.52;;;2.85;;
75837;SDS011;64480;52.040;113.502;2023-04-15T10:14:37;8.15;;;1.58;;
75837;SDS011;64480;52.040;113.502;2023-04-15T10:17:42;15.52;;;2.85;;
75837;SDS011;64480;52.040;113.502;2023-04-15T10:20:47;17.08;;;6.63;;
75837;SDS011;64480;52.040;113.502;2023-04-15T10:23:51;13.60;;;3.03;;
75837;SDS011;64480;52.040;113.502;2023-04-15T10:26:55;34.17;;;4.82;;
75837;SDS011;64480;52.040;113.502;2023-04-15T10:30:00;9.60;;;1.50;;
75837;SDS011;64480;52.040;113.502;2023-04-15T10:33:07;8.85;;;2.15;;
75837;SDS011;64480;52.040;113.502;2023-04-15T10:36:12;7.40;;;2.40;;
75837;SDS011;64480;52.040;113.502;2023-04-15T10:42:35;45.08;;;6.55;;
75837;SDS011;64480;52.040;113.502;2023-04-15T10:45:39;9.43;;;2.50;;
75837;SDS011;64480;52.040;113.502;2023-04-15T10:48:51;12.02;;;2.70;;
75837;SDS011;64480;52.040;113.502;2023-04-15T10:51:58;20.30;;;4.13;;
75837;SDS011;64480;52.040;113.502;2023-04-15T10:55:11;16.42;;;4.93;;
75837;SDS011;64480;52.040;113.502;2023-04-15T10:58:19;17.05;;;4.25;;
75837;SDS011;64480;52.040;113.502;2023-04-15T11:04:53;11.40;;;3.55;;
75837;SDS011;64480;52.040;113.502;2023-04-15T11:08:01;12.52;;;4.22;;
75837;SDS011;64480;52.040;113.502;2023-04-15T11:11:08;16.45;;;3.20;;
75837;SDS011;64480;52.040;113.502;2023-04-15T11:14:14;14.55;;;2.72;;
75837;SDS011;64480;52.040;113.502;2023-04-15T11:17:27;21.85;;;3.83;;
75837;SDS011;64480;52.040;113.502;2023-04-15T11:20:31;6.10;;;2.03;;
75837;SDS011;64480;52.040;113.502;2023-04-15T11:23:51;21.23;;;3.33;;
75837;SDS011;64480;52.040;113.502;2023-04-15T11:27:04;16.15;;;2.55;;
75837;SDS011;64480;52.040;113.502;2023-04-15T11:30:18;12.05;;;2.20;;
75837;SDS011;64480;52.040;113.502;2023-04-15T11:33:25;7.65;;;2.13;;
75837;SDS011;64480;52.040;113.502;2023-04-15T11:36:29;9.45;;;2.95;;
75837;SDS011;64480;52.040;113.502;2023-04-15T11:39:35;13.00;;;2.90;;
75837;SDS011;64480;52.040;113.502;2023-04-15T11:42:39;15.23;;;4.20;;
75837;SDS011;64480;52.040;113.502;2023-04-15T11:48:58;11.20;;;4.40;;
75837;SDS011;64480;52.040;113.502;2023-04-15T11:52:11;11.45;;;4.57;;
75837;SDS011;64480;52.040;113.502;2023-04-15T11:55:15;26.33;;;9.98;;
75837;SDS011;64480;52.040;113.502;2023-04-15T11:58:34;21.08;;;6.18;;
75837;SDS011;64480;52.040;113.502;2023-04-15T12:01:41;19.20;;;5.18;;
75837;SDS011;64480;52.040;113.502;2023-04-15T12:04:45;21.52;;;6.75;;
75837;SDS011;64480;52.040;113.502;2023-04-15T12:07:58;34.42;;;9.48;;
75837;SDS011;64480;52.040;113.502;2023-04-15T12:11:02;30.33;;;9.32;;
75837;SDS011;64480;52.040;113.502;2023-04-15T12:14:15;20.17;;;8.52;;
75837;SDS011;64480;52.040;113.502;2023-04-15T12:17:22;20.75;;;6.80;;
75837;SDS011;64480;52.040;113.502;2023-04-15T12:20:27;24.15;;;6.97;;
75837;SDS011;64480;52.040;113.502;2023-04-15T12:23:35;21.02;;;6.07;;
75837;SDS011;64480;52.040;113.502;2023-04-15T12:26:47;14.77;;;5.60;;
75837;SDS011;64480;52.040;113.502;2023-04-15T12:29:54;21.98;;;6.18;;
75837;SDS011;64480;52.040;113.502;2023-04-15T12:33:09;15.38;;;5.95;;
75837;SDS011;64480;52.040;113.502;2023-04-15T12:36:13;25.80;;;6.90;;
75837;SDS011;64480;52.040;113.502;2023-04-15T12:39:17;12.38;;;5.32;;
75837;SDS011;64480;52.040;113.502;2023-04-15T12:42:23;18.10;;;6.93;;
75837;SDS011;64480;52.040;113.502;2023-04-15T12:45:26;14.65;;;5.00;;
75837;SDS011;64480;52.040;113.502;2023-04-15T12:48:30;29.15;;;5.60;;
75837;SDS011;64480;52.040;113.502;2023-04-15T12:51:34;21.48;;;5.43;;
75837;SDS011;64480;52.040;113.502;2023-04-15T12:54:38;16.23;;;4.35;;
75837;SDS011;64480;52.040;113.502;2023-04-15T12:57:42;12.60;;;5.35;;
75837;SDS011;64480;52.040;113.502;2023-04-15T13:00:45;17.92;;;5.63;;
75837;SDS011;64480;52.040;113.502;2023-04-15T13:03:48;14.65;;;5.10;;
75837;SDS011;64480;52.040;113.502;2023-04-15T13:06:52;21.70;;;5.97;;
75837;SDS011;64480;52.040;113.502;2023-04-15T13:09:55;12.02;;;3.75;;
75837;SDS011;64480;52.040;113.502;2023-04-15T13:12:59;9.90;;;2.53;;
75837;SDS011;64480;52.040;113.502;2023-04-15T13:16:03;8.70;;;3.00;;
75837;SDS011;64480;52.040;113.502;2023-04-15T13:19:07;8.05;;;2.85;;
75837;SDS011;64480;52.040;113.502;2023-04-15T13:22:35;12.02;;;4.25;;
75837;SDS011;64480;52.040;113.502;2023-04-15T13:25:42;6.95;;;2.42;;
75837;SDS011;64480;52.040;113.502;2023-04-15T13:28:57;7.30;;;2.00;;
75837;SDS011;64480;52.040;113.502;2023-04-15T13:32:15;6.47;;;2.13;;
75837;SDS011;64480;52.040;113.502;2023-04-15T13:35:20;18.95;;;3.00;;
75837;SDS011;64480;52.040;113.502;2023-04-15T13:38:25;7.45;;;3.05;;
75837;SDS011;64480;52.040;113.502;2023-04-15T13:41:30;13.23;;;3.20;;
75837;SDS011;64480;52.040;113.502;2023-04-15T13:44:34;7.47;;;3.05;;
75837;SDS011;64480;52.040;113.502;2023-04-15T13:47:37;8.95;;;2.17;;
75837;SDS011;64480;52.040;113.502;2023-04-15T13:50:41;5.68;;;1.90;;
75837;SDS011;64480;52.040;113.502;2023-04-15T13:53:46;7.35;;;2.05;;
75837;SDS011;64480;52.040;113.502;2023-04-15T13:56:50;6.70;;;2.85;;
75837;SDS011;64480;52.040;113.502;2023-04-15T13:59:53;9.10;;;1.95;;
75837;SDS011;64480;52.040;113.502;2023-04-15T14:02:57;11.55;;;2.53;;
75837;SDS011;64480;52.040;113.502;2023-04-15T14:06:13;7.03;;;2.35;;
75837;SDS011;64480;52.040;113.502;2023-04-15T14:09:17;7.30;;;1.65;;
75837;SDS011;64480;52.040;113.502;2023-04-15T14:12:44;6.22;;;1.70;;
75837;SDS011;64480;52.040;113.502;2023-04-15T14:15:47;4.88;;;1.80;;
75837;SDS011;64480;52.040;113.502;2023-04-15T14:18:50;7.13;;;1.50;;
75837;SDS011;64480;52.040;113.502;2023-04-15T14:21:54;4.95;;;1.85;;
75837;SDS011;64480;52.040;113.502;2023-04-15T14:24:57;9.88;;;2.00;;
75837;SDS011;64480;52.040;113.502;2023-04-15T14:28:01;12.40;;;2.17;;
75837;SDS011;64480;52.040;113.502;2023-04-15T14:31:05;9.90;;;2.42;;
75837;SDS011;64480;52.040;113.502;2023-04-15T14:34:09;5.15;;;2.33;;
75837;SDS011;64480;52.040;113.502;2023-04-15T14:37:13;4.88;;;2.35;;
75837;SDS011;64480;52.040;113.502;2023-04-15T14:40:16;5.35;;;1.70;;
75837;SDS011;64480;52.040;113.502;2023-04-15T14:43:20;6.85;;;1.52;;
75837;SDS011;64480;52.040;113.502;2023-04-15T14:46:24;5.32;;;1.35;;
75837;SDS011;64480;52.040;113.502;2023-04-15T14:49:27;5.13;;;1.10;;
75837;SDS011;64480;52.040;113.502;2023-04-15T14:52:32;5.03;;;1.35;;
75837;SDS011;64480;52.040;113.502;2023-04-15T14:55:40;7.65;;;2.22;;
75837;SDS011;64480;52.040;113.502;2023-04-15T14:58:43;2.72;;;1.17;;
75837;SDS011;64480;52.040;113.502;2023-04-15T15:01:47;4.70;;;1.33;;
75837;SDS011;64480;52.040;113.502;2023-04-15T15:04:50;2.72;;;1.02;;
75837;SDS011;64480;52.040;113.502;2023-04-15T15:07:54;103.78;;;7.80;;
75837;SDS011;64480;52.040;113.502;2023-04-15T15:10:57;6.93;;;1.80;;
75837;SDS011;64480;52.040;113.502;2023-04-15T15:14:01;7.07;;;1.48;;
75837;SDS011;64480;52.040;113.502;2023-04-15T15:17:04;3.95;;;1.20;;
75837;SDS011;64480;52.040;113.502;2023-04-15T15:20:08;4.15;;;1.20;;
75837;SDS011;64480;52.040;113.502;2023-04-15T15:23:14;3.30;;;0.95;;
75837;SDS011;64480;52.040;113.502;2023-04-15T15:26:17;4.57;;;1.02;;
75837;SDS011;64480;52.040;113.502;2023-04-15T15:29:21;4.95;;;0.95;;
75837;SDS011;64480;52.040;113.502;2023-04-15T15:32:25;9.18;;;1.20;;
75837;SDS011;64480;52.040;113.502;2023-04-15T15:35:28;2.10;;;0.95;;
75837;SDS011;64480;52.040;113.502;2023-04-15T15:38:32;3.47;;;0.82;;
75837;SDS011;64480;52.040;113.502;2023-04-15T15:41:35;8.30;;;1.20;;
75837;SDS011;64480;52.040;113.502;2023-04-15T15:44:39;4.70;;;0.98;;
75837;SDS011;64480;52.040;113.502;2023-04-15T15:47:42;2.67;;;0.93;;
75837;SDS011;64480;52.040;113.502;2023-04-15T15:50:46;3.42;;;1.00;;
75837;SDS011;64480;52.040;113.502;2023-04-15T15:53:49;4.80;;;0.77;;
75837;SDS011;64480;52.040;113.502;2023-04-15T15:56:53;7.80;;;1.20;;
75837;SDS011;64480;52.040;113.502;2023-04-15T15:59:56;2.40;;;1.10;;
75837;SDS011;64480;52.040;113.502;2023-04-15T16:03:13;4.78;;;0.88;;
75837;SDS011;64480;52.040;113.502;2023-04-15T16:06:17;3.92;;;1.00;;
75837;SDS011;64480;52.040;113.502;2023-04-15T16:09:21;7.32;;;1.23;;
75837;SDS011;64480;52.040;113.502;2023-04-15T16:12:24;6.15;;;1.15;;
75837;SDS011;64480;52.040;113.502;2023-04-15T16:15:28;8.27;;;1.10;;
75837;SDS011;64480;52.040;113.502;2023-04-15T16:18:32;3.60;;;0.75;;
75837;SDS011;64480;52.040;113.502;2023-04-15T16:21:36;5.57;;;1.17;;
75837;SDS011;64480;52.040;113.502;2023-04-15T16:24:39;2.92;;;0.80;;
75837;SDS011;64480;52.040;113.502;2023-04-15T16:27:43;4.20;;;1.08;;
75837;SDS011;64480;52.040;113.502;2023-04-15T16:31:04;19.27;;;1.98;;
75837;SDS011;64480;52.040;113.502;2023-04-15T16:34:07;4.35;;;0.80;;
75837;SDS011;64480;52.040;113.502;2023-04-15T16:37:11;3.33;;;0.95;;
75837;SDS011;64480;52.040;113.502;2023-04-15T16:40:14;2.42;;;1.00;;
75837;SDS011;64480;52.040;113.502;2023-04-15T16:43:18;3.92;;;0.82;;
75837;SDS011;64480;52.040;113.502;2023-04-15T16:46:22;4.78;;;1.20;;
75837;SDS011;64480;52.040;113.502;2023-04-15T16:49:25;1.90;;;0.95;;
75837;SDS011;64480;52.040;113.502;2023-04-15T16:52:29;5.22;;;1.30;;
75837;SDS011;64480;52.040;113.502;2023-04-15T16:55:33;6.57;;;1.20;;
75837;SDS011;64480;52.040;113.502;2023-04-15T16:58:36;3.33;;;1.20;;
75837;SDS011;64480;52.040;113.502;2023-04-15T17:01:40;4.35;;;0.95;;
75837;SDS011;64480;52.040;113.502;2023-04-15T17:04:44;3.95;;;1.20;;
75837;SDS011;64480;52.040;113.502;2023-04-15T17:07:47;2.85;;;1.23;;
75837;SDS011;64480;52.040;113.502;2023-04-15T17:10:51;26.55;;;2.63;;
75837;SDS011;64480;52.040;113.502;2023-04-15T17:13:54;6.20;;;1.13;;
75837;SDS011;64480;52.040;113.502;2023-04-15T17:16:58;7.40;;;1.20;;
75837;SDS011;64480;52.040;113.502;2023-04-15T17:20:01;3.42;;;1.33;;
75837;SDS011;64480;52.040;113.502;2023-04-15T17:23:05;6.75;;;1.50;;
75837;SDS011;64480;52.040;113.502;2023-04-15T17:26:09;5.40;;;1.50;;
75837;SDS011;64480;52.040;113.502;2023-04-15T17:29:12;5.60;;;1.27;;
75837;SDS011;64480;52.040;113.502;2023-04-15T17:32:16;8.73;;;1.63;;
75837;SDS011;64480;52.040;113.502;2023-04-15T17:35:19;4.60;;;1.63;;
75837;SDS011;64480;52.040;113.502;2023-04-15T17:38:24;4.05;;;1.55;;
75837;SDS011;64480;52.040;113.502;2023-04-15T17:41:28;3.05;;;1.13;;
75837;SDS011;64480;52.040;113.502;2023-04-15T17:44:31;7.78;;;1.50;;
75837;SDS011;64480;52.040;113.502;2023-04-15T17:47:35;8.02;;;2.25;;
75837;SDS011;64480;52.040;113.502;2023-04-15T17:50:39;7.05;;;1.05;;
75837;SDS011;64480;52.040;113.502;2023-04-15T17:53:42;2.47;;;0.80;;
75837;SDS011;64480;52.040;113.502;2023-04-15T17:56:46;3.53;;;1.00;;
75837;SDS011;64480;52.040;113.502;2023-04-15T17:59:50;4.45;;;0.90;;
75837;SDS011;64480;52.040;113.502;2023-04-15T18:02:54;2.33;;;1.00;;
75837;SDS011;64480;52.040;113.502;2023-04-15T18:05:58;6.55;;;1.10;;